createdAt,value
2022-10-17T00:01:59.161Z,4.90
2022-10-17T00:04:32.272Z,5.43
2022-10-17T00:07:02.094Z,5.22
2022-10-17T00:09:33.211Z,5.43
2022-10-17T00:12:32.420Z,5.40
2022-10-17T00:15:17.370Z,5.50
2022-10-17T00:17:48.230Z,6.30
2022-10-17T00:20:25.982Z,7.03
2022-10-17T00:22:57.388Z,5.68
2022-10-17T00:25:25.873Z,5.75
2022-10-17T00:27:53.937Z,5.07
2022-10-17T00:30:25.036Z,5.97
2022-10-17T00:35:38.530Z,5.53
2022-10-17T00:38:12.440Z,5.50
2022-10-17T00:40:40.510Z,5.45
2022-10-17T00:43:20.558Z,5.95
2022-10-17T00:45:49.252Z,4.80
2022-10-17T00:48:23.318Z,4.93
2022-10-17T00:50:52.154Z,5.65
2022-10-17T00:53:22.885Z,4.88
2022-10-17T00:55:54.326Z,5.38
2022-10-17T00:58:33.459Z,5.47
2022-10-17T01:01:03.168Z,5.57
2022-10-17T01:03:30.999Z,5.50
2022-10-17T01:05:58.642Z,5.45
2022-10-17T01:08:25.928Z,5.38
2022-10-17T01:11:05.965Z,5.13
2022-10-17T01:13:49.925Z,5.00
2022-10-17T01:16:24.678Z,5.55
2022-10-17T01:19:31.056Z,5.15
2022-10-17T01:22:11.650Z,4.68
2022-10-17T01:24:48.795Z,5.50
2022-10-17T01:27:35.953Z,5.00
2022-10-17T01:30:30.692Z,4.97
2022-10-17T01:33:24.265Z,5.10
2022-10-17T01:36:06.752Z,5.07
2022-10-17T01:39:06.151Z,4.47
2022-10-17T01:41:43.126Z,4.70
2022-10-17T01:44:21.911Z,5.45
2022-10-17T01:47:02.579Z,4.50
2022-10-17T01:49:33.358Z,4.50
2022-10-17T01:52:11.647Z,4.18
2022-10-17T01:54:55.537Z,4.35
2022-10-17T01:57:26.578Z,5.13
2022-10-17T02:00:08.437Z,4.68
2022-10-17T02:02:59.400Z,4.32
2022-10-17T02:05:44.577Z,4.22
2022-10-17T02:08:53.135Z,4.20
2022-10-17T02:11:28.067Z,5.00
2022-10-17T02:14:22.223Z,5.20
2022-10-17T02:20:17.582Z,4.60
2022-10-17T02:23:25.394Z,4.55
2022-10-17T02:26:16.702Z,4.55
2022-10-17T02:28:59.823Z,4.50
2022-10-17T02:31:44.942Z,4.22
2022-10-17T02:34:54.401Z,3.80
2022-10-17T02:37:28.524Z,5.50
2022-10-17T02:40:10.055Z,5.90
2022-10-17T02:42:48.716Z,4.68
2022-10-17T02:45:36.809Z,4.82
2022-10-17T02:49:03.549Z,4.70
2022-10-17T02:52:06.129Z,4.93
2022-10-17T02:54:55.457Z,4.97
2022-10-17T02:58:15.113Z,5.90
2022-10-17T03:00:46.211Z,5.60
2022-10-17T03:03:26.175Z,5.75
2022-10-17T03:05:54.214Z,7.18
2022-10-17T03:08:25.164Z,4.13
2022-10-17T03:10:52.545Z,4.82
2022-10-17T03:13:21.385Z,4.40
2022-10-17T03:15:48.687Z,4.47
2022-10-17T03:18:16.215Z,4.90
2022-10-17T03:20:44.597Z,4.45
2022-10-17T03:23:11.880Z,4.53
2022-10-17T03:25:40.251Z,4.57
2022-10-17T03:28:07.497Z,4.50
2022-10-17T03:30:35.158Z,4.50
2022-10-17T03:33:02.620Z,3.55
2022-10-17T03:35:30.594Z,3.92
2022-10-17T03:37:59.023Z,3.85
2022-10-17T03:40:28.040Z,4.15
2022-10-17T03:42:55.175Z,3.75
2022-10-17T03:45:22.448Z,4.35
2022-10-17T03:47:49.892Z,4.70
2022-10-17T03:50:17.233Z,4.68
2022-10-17T03:52:48.604Z,4.18
2022-10-17T03:55:16.670Z,4.13
2022-10-17T03:57:45.518Z,4.45
2022-10-17T04:00:23.642Z,5.13
2022-10-17T04:03:17.119Z,4.75
2022-10-17T04:05:54.698Z,4.57
2022-10-17T04:08:29.367Z,4.60
2022-10-17T04:11:34.877Z,5.18
2022-10-17T04:14:14.246Z,4.40
2022-10-17T04:17:04.270Z,4.80
2022-10-17T04:19:49.567Z,4.63
2022-10-17T04:22:23.023Z,4.55
2022-10-17T04:24:53.978Z,4.90
2022-10-17T04:27:39.745Z,5.57
2022-10-17T04:30:52.139Z,5.22
2022-10-17T04:33:42.918Z,4.95
2022-10-17T04:36:19.135Z,4.72
2022-10-17T04:41:46.553Z,5.10
2022-10-17T04:44:22.105Z,5.28
2022-10-17T04:47:09.274Z,5.03
2022-10-17T04:49:42.694Z,5.30
2022-10-17T04:52:26.866Z,5.57
2022-10-17T04:55:11.833Z,5.30
2022-10-17T04:57:56.687Z,5.85
2022-10-17T05:00:32.827Z,5.88
2022-10-17T05:03:38.139Z,5.38
2022-10-17T05:06:16.320Z,4.82
2022-10-17T05:09:00.605Z,5.35
2022-10-17T05:11:34.307Z,5.38
2022-10-17T05:14:09.101Z,5.55
2022-10-17T05:16:51.955Z,5.75
2022-10-17T05:19:31.202Z,5.47
2022-10-17T05:22:06.481Z,5.35
2022-10-17T05:24:46.613Z,5.22
2022-10-17T05:27:28.377Z,5.88
2022-10-17T05:30:07.313Z,4.97
2022-10-17T05:32:45.467Z,5.55
2022-10-17T05:35:22.324Z,5.90
2022-10-17T05:38:02.360Z,5.50
2022-10-17T05:40:42.901Z,5.38
2022-10-17T05:43:16.611Z,4.93
2022-10-17T05:45:59.631Z,4.85
2022-10-17T05:48:30.878Z,5.25
2022-10-17T05:51:17.377Z,5.85
2022-10-17T05:53:45.505Z,6.45
2022-10-17T05:56:20.941Z,5.57
2022-10-17T05:58:52.371Z,6.28
2022-10-17T06:01:46.267Z,5.78
2022-10-17T06:04:14.024Z,7.22
2022-10-17T06:06:41.917Z,5.53
2022-10-17T06:09:14.071Z,5.72
2022-10-17T06:11:48.293Z,4.82
2022-10-17T06:14:17.275Z,5.50
2022-10-17T06:16:45.336Z,4.78
2022-10-17T06:19:13.473Z,5.35
2022-10-17T06:21:44.103Z,4.50
2022-10-17T06:24:19.672Z,4.50
2022-10-17T06:26:48.330Z,4.65
2022-10-17T06:29:16.695Z,4.78
2022-10-17T06:31:51.137Z,4.35
2022-10-17T06:34:20.484Z,4.50
2022-10-17T06:36:48.993Z,5.00
2022-10-17T06:39:22.051Z,6.00
2022-10-17T06:42:02.609Z,6.33
2022-10-17T06:44:55.055Z,4.90
2022-10-17T06:47:45.193Z,5.28
2022-10-17T06:50:36.526Z,5.10
2022-10-17T06:53:18.102Z,4.88
2022-10-17T06:56:08.245Z,5.50
2022-10-17T06:58:56.276Z,5.30
2022-10-17T07:01:34.913Z,4.45
2022-10-17T07:04:08.266Z,5.43
2022-10-17T07:06:36.309Z,5.47
2022-10-17T07:09:13.801Z,5.35
2022-10-17T07:11:41.617Z,5.20
2022-10-17T07:14:11.192Z,5.18
2022-10-17T07:16:39.353Z,5.15
2022-10-17T07:19:19.635Z,5.22
2022-10-17T07:21:50.600Z,4.55
2022-10-17T07:24:20.992Z,4.60
2022-10-17T07:26:54.665Z,5.57
2022-10-17T07:29:22.493Z,5.50
2022-10-17T07:34:39.590Z,6.07
2022-10-17T07:37:10.465Z,7.72
2022-10-17T07:39:40.564Z,5.72
2022-10-17T07:42:08.499Z,5.50
2022-10-17T07:44:38.463Z,7.45
2022-10-17T07:47:06.945Z,5.38
2022-10-17T07:49:43.306Z,5.95
2022-10-17T07:52:12.690Z,8.65
2022-10-17T07:54:40.780Z,8.05
2022-10-17T07:57:09.538Z,9.98
2022-10-17T07:59:38.763Z,8.80
2022-10-17T08:02:08.678Z,6.25
2022-10-17T08:04:37.027Z,6.78
2022-10-17T08:07:19.594Z,6.65
2022-10-17T08:09:50.009Z,5.45
2022-10-17T08:12:18.533Z,5.80
2022-10-17T08:14:47.471Z,5.25
2022-10-17T08:17:16.369Z,4.47
2022-10-17T08:19:45.951Z,5.20
2022-10-17T08:22:14.197Z,5.18
2022-10-17T08:24:43.549Z,5.47
2022-10-17T08:27:14.283Z,6.15
2022-10-17T08:29:43.923Z,6.05
2022-10-17T08:32:12.506Z,5.70
2022-10-17T08:34:40.696Z,6.05
2022-10-17T08:37:08.445Z,5.97
2022-10-17T08:39:36.242Z,6.03
2022-10-17T08:42:06.606Z,6.50
2022-10-17T08:44:52.535Z,7.10
2022-10-17T08:47:29.994Z,6.90
2022-10-17T08:50:04.102Z,5.65
2022-10-17T08:52:43.328Z,6.53
2022-10-17T08:55:23.169Z,6.70
2022-10-17T08:57:53.450Z,6.47
2022-10-17T09:00:22.644Z,7.35
2022-10-17T09:03:08.429Z,7.97
2022-10-17T09:05:54.637Z,5.95
2022-10-17T09:08:47.933Z,7.80
2022-10-17T09:11:52.713Z,8.25
2022-10-17T09:14:32.210Z,7.25
2022-10-17T09:17:21.941Z,7.55
2022-10-17T09:20:10.958Z,8.50
2022-10-17T09:22:49.704Z,7.72
2022-10-17T09:25:20.195Z,7.13
2022-10-17T09:27:52.159Z,6.25
2022-10-17T09:30:50.379Z,6.95
2022-10-17T09:33:54.008Z,6.60
2022-10-17T09:36:39.932Z,6.50
2022-10-17T09:39:18.565Z,6.33
2022-10-17T09:41:54.155Z,5.75
2022-10-17T09:44:31.541Z,5.90
2022-10-17T09:47:31.895Z,6.65
2022-10-17T09:50:05.674Z,6.20
2022-10-17T09:52:43.614Z,6.35
2022-10-17T09:55:38.685Z,6.35
2022-10-17T09:58:09.517Z,6.40
2022-10-17T10:00:45.564Z,5.18
2022-10-17T10:03:21.020Z,5.82
2022-10-17T10:06:01.347Z,5.32
2022-10-17T10:08:53.156Z,4.20
2022-10-17T10:11:27.604Z,4.22
2022-10-17T10:14:16.249Z,4.63
2022-10-17T10:16:51.116Z,4.43
2022-10-17T10:19:39.029Z,5.13
2022-10-17T10:22:24.309Z,4.80
2022-10-17T10:25:20.596Z,4.95
2022-10-17T10:27:49.454Z,4.55
2022-10-17T10:30:36.133Z,6.13
2022-10-17T10:33:09.516Z,3.88
2022-10-17T10:35:43.714Z,4.80
2022-10-17T10:38:18.397Z,6.15
2022-10-17T10:40:53.031Z,3.85
2022-10-17T10:43:41.645Z,4.43
2022-10-17T10:46:18.337Z,4.80
2022-10-17T10:49:00.835Z,4.18
2022-10-17T10:51:33.213Z,4.43
2022-10-17T10:54:16.241Z,4.50
2022-10-17T10:56:53.631Z,4.18
2022-10-17T10:59:38.699Z,4.65
2022-10-17T11:02:28.437Z,4.55
2022-10-17T11:05:14.254Z,4.00
2022-10-17T11:07:59.737Z,4.05
2022-10-17T11:10:51.213Z,4.90
2022-10-17T11:13:30.913Z,4.80
2022-10-17T11:16:19.361Z,3.88
2022-10-17T11:19:03.718Z,4.68
2022-10-17T11:21:38.201Z,4.53
2022-10-17T11:24:09.478Z,4.78
2022-10-17T11:27:15.559Z,4.18
2022-10-17T11:29:47.611Z,4.53
2022-10-17T11:32:33.410Z,5.45
2022-10-17T11:35:39.559Z,4.90
2022-10-17T11:38:33.032Z,4.55
2022-10-17T11:41:08.052Z,3.67
2022-10-17T11:43:56.554Z,3.88
2022-10-17T11:46:33.779Z,3.08
2022-10-17T11:49:20.663Z,2.83
2022-10-17T11:52:02.953Z,3.83
2022-10-17T11:54:49.634Z,5.85
2022-10-17T11:57:43.537Z,5.15
2022-10-17T12:03:31.356Z,4.35
2022-10-17T12:06:16.425Z,4.27
2022-10-17T12:09:09.172Z,3.85
2022-10-17T12:12:09.268Z,3.60
2022-10-17T12:14:47.091Z,3.55
2022-10-17T12:17:35.703Z,3.92
2022-10-17T12:20:37.100Z,4.28
2022-10-17T12:23:18.183Z,3.75
2022-10-17T12:25:51.864Z,3.45
2022-10-17T12:28:44.887Z,3.53
2022-10-17T12:31:23.911Z,3.30
2022-10-17T12:33:57.622Z,4.18
2022-10-17T12:36:32.448Z,3.05
2022-10-17T12:39:09.547Z,4.07
2022-10-17T12:41:41.347Z,2.65
2022-10-17T12:44:15.185Z,3.28
2022-10-17T12:47:11.220Z,4.22
2022-10-17T12:49:46.046Z,4.07
2022-10-17T12:52:27.462Z,3.33
2022-10-17T12:55:13.486Z,3.90
2022-10-17T12:57:50.481Z,4.50
2022-10-17T13:01:19.104Z,3.65
2022-10-17T13:03:49.205Z,3.35
2022-10-17T13:06:22.341Z,4.47
2022-10-17T13:11:37.050Z,5.72
2022-10-17T13:14:13.381Z,3.70
2022-10-17T13:16:58.595Z,3.92
2022-10-17T13:19:32.674Z,3.63
2022-10-17T13:22:06.903Z,3.63
2022-10-17T13:24:44.073Z,4.30
2022-10-17T13:27:31.782Z,3.67
2022-10-17T13:30:21.036Z,3.60
2022-10-17T13:32:52.273Z,3.60
2022-10-17T13:35:55.370Z,5.28
2022-10-17T13:38:26.196Z,4.13
2022-10-17T13:41:01.680Z,4.28
2022-10-17T13:43:39.561Z,3.85
2022-10-17T13:46:32.600Z,4.68
2022-10-17T13:49:03.642Z,4.15
2022-10-17T13:51:34.594Z,4.15
2022-10-17T13:54:02.563Z,3.95
2022-10-17T13:56:32.615Z,3.95
2022-10-17T13:59:22.246Z,4.25
2022-10-17T14:01:53.244Z,3.88
2022-10-17T14:04:22.313Z,3.33
2022-10-17T14:06:52.224Z,3.60
2022-10-17T14:09:27.840Z,4.57
2022-10-17T14:12:11.991Z,4.15
2022-10-17T14:17:39.277Z,4.03
2022-10-17T14:25:51.296Z,3.50
2022-10-17T14:28:23.943Z,4.00
2022-10-17T14:30:57.574Z,3.67
2022-10-17T14:33:34.625Z,3.08
2022-10-17T14:36:07.637Z,4.13
2022-10-17T14:38:39.689Z,3.92
2022-10-17T14:44:16.768Z,3.60
2022-10-17T14:46:50.784Z,4.47
2022-10-17T14:49:33.280Z,3.85
2022-10-17T14:52:27.924Z,4.05
2022-10-17T14:54:57.127Z,3.85
2022-10-17T14:57:29.468Z,3.92
2022-10-17T14:59:59.054Z,4.10
2022-10-17T15:02:29.005Z,4.30
2022-10-17T15:04:56.858Z,4.32
2022-10-17T15:07:24.670Z,4.63
2022-10-17T15:09:54.139Z,9.02
2022-10-17T15:12:28.588Z,8.20
2022-10-17T15:14:57.012Z,5.40
2022-10-17T15:17:30.613Z,5.60
2022-10-17T15:19:59.958Z,4.43
2022-10-17T15:22:30.985Z,5.13
2022-10-17T15:24:59.224Z,4.15
2022-10-17T15:27:34.779Z,4.38
2022-10-17T15:30:05.714Z,4.75
2022-10-17T15:32:33.801Z,4.68
2022-10-17T15:35:01.472Z,4.25
2022-10-17T15:37:37.737Z,5.32
2022-10-17T15:40:07.192Z,5.78
2022-10-17T15:42:35.378Z,4.75
2022-10-17T15:45:04.524Z,4.85
2022-10-17T15:47:34.679Z,5.07
2022-10-17T15:50:07.042Z,4.93
2022-10-17T15:52:38.745Z,4.78
2022-10-17T15:55:09.616Z,4.55
2022-10-17T15:57:45.643Z,4.30
2022-10-17T16:00:20.702Z,4.65
2022-10-17T16:02:50.310Z,5.15
2022-10-17T16:05:26.320Z,5.28
2022-10-17T16:07:55.431Z,6.13
2022-10-17T16:10:24.718Z,5.30
2022-10-17T16:12:53.502Z,4.78
2022-10-17T16:15:25.450Z,6.50
2022-10-17T16:17:54.827Z,4.80
2022-10-17T16:20:27.299Z,4.65
2022-10-17T16:23:01.353Z,4.72
2022-10-17T16:25:30.571Z,4.45
2022-10-17T16:28:00.669Z,4.68
2022-10-17T16:30:34.174Z,4.82
2022-10-17T16:33:07.003Z,4.63
2022-10-17T16:35:37.622Z,5.22
2022-10-17T16:38:07.756Z,5.30
2022-10-17T16:40:41.869Z,5.18
2022-10-17T16:43:18.566Z,5.18
2022-10-17T16:45:47.129Z,4.95
2022-10-17T16:48:21.344Z,6.05
2022-10-17T16:50:51.912Z,6.70
2022-10-17T16:53:23.177Z,5.25
2022-10-17T16:56:06.340Z,6.28
2022-10-17T16:58:35.028Z,5.18
2022-10-17T17:01:08.769Z,6.07
2022-10-17T17:03:39.915Z,4.95
2022-10-17T17:06:10.197Z,5.22
2022-10-17T17:08:38.027Z,5.50
2022-10-17T17:11:11.130Z,5.25
2022-10-17T17:13:39.125Z,5.70
2022-10-17T17:16:14.533Z,6.55
2022-10-17T17:18:43.917Z,6.28
2022-10-17T17:24:10.625Z,6.25
2022-10-17T17:26:39.460Z,5.78
2022-10-17T17:29:07.809Z,7.18
2022-10-17T17:31:36.851Z,6.35
2022-10-17T17:34:08.055Z,6.80
2022-10-17T17:36:37.962Z,7.85
2022-10-17T17:39:11.400Z,6.95
2022-10-17T17:41:40.200Z,7.95
2022-10-17T17:44:15.747Z,6.82
2022-10-17T17:46:46.259Z,6.32
2022-10-17T17:49:15.654Z,7.68
2022-10-17T17:51:47.001Z,6.90
2022-10-17T17:54:15.359Z,6.75
2022-10-17T17:56:44.231Z,7.30
2022-10-17T17:59:14.069Z,7.93
2022-10-17T18:01:44.053Z,7.68
2022-10-17T18:04:17.166Z,10.18
2022-10-17T18:06:46.284Z,8.63
2022-10-17T18:09:17.478Z,8.48
2022-10-17T18:11:45.549Z,7.40
2022-10-17T18:14:19.827Z,8.93
2022-10-17T18:16:48.114Z,8.25
2022-10-17T18:19:16.349Z,6.97
2022-10-17T18:21:46.998Z,7.88
2022-10-17T18:24:23.475Z,7.78
2022-10-17T18:27:03.767Z,10.15
2022-10-17T18:29:42.501Z,10.85
2022-10-17T18:32:17.468Z,11.60
2022-10-17T18:35:05.670Z,10.55
2022-10-17T18:37:45.856Z,10.45
2022-10-17T18:40:17.430Z,8.07
2022-10-17T18:42:51.868Z,8.88
2022-10-17T18:48:13.042Z,7.88
2022-10-17T18:50:53.086Z,9.77
2022-10-17T18:53:54.601Z,7.85
2022-10-17T18:56:28.864Z,9.43
2022-10-17T18:58:59.065Z,8.27
2022-10-17T19:01:37.884Z,9.07
2022-10-17T19:04:14.630Z,8.52
2022-10-17T19:06:48.438Z,9.50
2022-10-17T19:11:59.322Z,9.00
2022-10-17T19:14:41.478Z,8.00
2022-10-17T19:17:16.211Z,8.50
2022-10-17T19:19:59.207Z,9.02
2022-10-17T19:22:28.864Z,8.32
2022-10-17T19:28:22.943Z,8.85
2022-10-17T19:30:54.548Z,9.40
2022-10-17T19:33:22.435Z,7.88
2022-10-17T19:35:59.890Z,7.22
2022-10-17T19:38:35.585Z,8.65
2022-10-17T19:41:18.229Z,8.40
2022-10-17T19:43:47.045Z,8.32
2022-10-17T19:46:21.383Z,8.18
2022-10-17T19:48:50.242Z,7.53
2022-10-17T19:51:21.490Z,8.85
2022-10-17T19:53:50.796Z,7.25
2022-10-17T19:56:26.448Z,7.25
2022-10-17T19:59:00.159Z,7.90
2022-10-17T20:01:37.331Z,6.88
2022-10-17T20:04:12.093Z,7.65
2022-10-17T20:06:44.900Z,7.40
2022-10-17T20:09:18.295Z,7.03
2022-10-17T20:14:22.514Z,7.78
2022-10-17T20:16:53.361Z,11.20
2022-10-17T20:19:28.293Z,9.15
2022-10-17T20:21:57.857Z,7.03
2022-10-17T20:24:29.488Z,6.95
2022-10-17T20:26:58.023Z,8.23
2022-10-17T20:29:32.199Z,8.18
2022-10-17T20:34:51.694Z,9.48
2022-10-17T20:37:23.398Z,9.30
2022-10-17T20:40:16.491Z,7.10
2022-10-17T20:42:52.144Z,6.35
2022-10-17T20:45:43.631Z,7.00
2022-10-17T20:48:21.530Z,7.13
2022-10-17T20:51:01.810Z,6.80
2022-10-17T20:53:49.042Z,7.80
2022-10-17T20:59:23.926Z,8.30
2022-10-17T21:02:11.407Z,12.43
2022-10-17T21:04:54.302Z,7.70
2022-10-17T21:07:27.947Z,6.93
2022-10-17T21:10:30.709Z,6.45
2022-10-17T21:13:09.020Z,8.85
2022-10-17T21:16:00.102Z,7.10
2022-10-17T21:18:35.613Z,6.82
2022-10-17T21:21:36.799Z,6.70
2022-10-17T21:24:25.291Z,7.03
2022-10-17T21:26:58.278Z,7.20
2022-10-17T21:33:04.897Z,7.95
2022-10-17T21:35:56.949Z,8.13
2022-10-17T21:38:41.771Z,7.68
2022-10-17T21:44:05.256Z,5.88
2022-10-17T21:50:08.883Z,6.43
2022-10-17T21:55:42.394Z,6.75
2022-10-17T21:58:26.138Z,6.78
2022-10-17T22:07:51.081Z,6.55
2022-10-17T22:13:39.798Z,8.90
2022-10-17T22:16:21.248Z,7.30
2022-10-17T22:19:06.492Z,7.10
2022-10-17T22:25:14.055Z,8.52
2022-10-17T22:27:51.778Z,7.07
2022-10-17T22:33:13.708Z,6.63
2022-10-17T22:36:19.889Z,7.07
2022-10-17T22:39:04.697Z,6.80
2022-10-17T22:41:49.725Z,8.05
2022-10-17T22:44:43.441Z,7.70
2022-10-17T22:47:23.600Z,8.50
2022-10-17T22:49:52.525Z,7.70
2022-10-17T22:52:22.820Z,8.55
2022-10-17T22:54:58.058Z,7.18
2022-10-17T22:57:39.249Z,8.30
2022-10-17T23:00:13.160Z,7.20
2022-10-17T23:02:41.983Z,9.27
2022-10-17T23:05:15.162Z,8.88
2022-10-17T23:10:20.436Z,8.40
2022-10-17T23:12:51.573Z,9.07
2022-10-17T23:15:19.552Z,8.00
2022-10-17T23:17:48.646Z,7.95
2022-10-17T23:20:18.707Z,8.85
2022-10-17T23:22:47.304Z,8.10
2022-10-17T23:25:15.567Z,7.75
2022-10-17T23:27:44.248Z,7.57
2022-10-17T23:30:14.823Z,8.20
2022-10-17T23:32:43.093Z,10.30
2022-10-17T23:35:13.837Z,8.75
2022-10-17T23:37:41.677Z,8.80
2022-10-17T23:40:12.978Z,8.52
2022-10-17T23:42:40.832Z,8.68
2022-10-17T23:45:09.121Z,9.60
2022-10-17T23:47:37.157Z,9.32
2022-10-17T23:50:11.918Z,8.90
2022-10-17T23:52:40.216Z,9.40
2022-10-17T23:55:11.974Z,8.43
